Time;durP1;ratioP1;P1;durP2;ratioP2;P2;SDS_P1;SDS_P2;PMS_P1;PMS_P2;Temp;Humidity;BMP_temperature;BMP_pressure;BME280_temperature;BME280_humidity;BME280_pressure;Samples;Min_cycle;Max_cycle;Signal;HPM_P1;HPM_P2
2022/04/01 00:02:13;;;;;;;340.90;84.93;;;;;;;;;;5101613;28;20491;-92
2022/04/01 00:04:40;;;;;;;329.17;82.80;;;;;;;;;;5102295;28;20436;-91
2022/04/01 00:07:06;;;;;;;346.27;82.23;;;;;;;;;;5101438;28;20531;-91
2022/04/01 00:09:33;;;;;;;343.17;85.10;;;;;;;;;;5101086;28;20445;-93
2022/04/01 00:12:01;;;;;;;330.07;79.93;;;;;;;;;;5100316;28;20466;-92
2022/04/01 00:14:27;;;;;;;341.37;80.37;;;;;;;;;;5101094;28;20878;-91
2022/04/01 00:16:54;;;;;;;329.70;82.80;;;;;;;;;;5084700;28;21147;-91
2022/04/01 00:19:20;;;;;;;335.07;83.80;;;;;;;;;;5102512;28;20459;-92
2022/04/01 00:21:47;;;;;;;338.20;89.10;;;;;;;;;;5082774;28;20469;-92
2022/04/01 00:24:14;;;;;;;342.40;84.43;;;;;;;;;;5080541;28;20446;-92
2022/04/01 00:26:40;;;;;;;326.80;80.13;;;;;;;;;;5080831;28;20453;-91
2022/04/01 00:29:15;;;;;;;335.30;84.67;;;;;;;;;;5081141;28;20999;-92
2022/04/01 00:31:42;;;;;;;329.40;80.97;;;;;;;;;;5099241;28;20464;-92
2022/04/01 00:34:18;;;;;;;346.47;86.83;;;;;;;;;;5100394;28;20513;-92
2022/04/01 00:36:45;;;;;;;346.87;86.27;;;;;;;;;;5083642;28;20526;-92
2022/04/01 00:39:11;;;;;;;329.57;83.20;;;;;;;;;;5081404;28;21082;-91
2022/04/01 00:41:38;;;;;;;324.70;79.33;;;;;;;;;;5081193;28;20442;-94
2022/04/01 00:44:13;;;;;;;347.87;84.93;;;;;;;;;;5080726;28;20460;-91
2022/04/01 00:46:40;;;;;;;348.13;84.17;;;;;;;;;;5098160;28;20531;-92
2022/04/01 00:49:07;;;;;;;345.40;87.20;;;;;;;;;;5102311;28;20444;-91
2022/04/01 00:51:33;;;;;;;331.33;85.60;;;;;;;;;;5100130;28;20473;-90
2022/04/01 00:54:00;;;;;;;331.70;85.97;;;;;;;;;;5100621;28;20445;-91
2022/04/01 00:56:31;;;;;;;352.03;87.37;;;;;;;;;;5086644;28;20442;-92
2022/04/01 00:58:57;;;;;;;342.30;87.63;;;;;;;;;;5082010;28;20507;-91
2022/04/01 01:01:25;;;;;;;343.43;85.07;;;;;;;;;;5098969;28;20441;-90
2022/04/01 01:03:52;;;;;;;344.37;87.10;;;;;;;;;;5104803;28;20457;-90
2022/04/01 01:06:19;;;;;;;335.53;83.10;;;;;;;;;;5105034;28;20445;-89
2022/04/01 01:08:47;;;;;;;347.87;84.40;;;;;;;;;;5105499;28;20474;-92
2022/04/01 01:11:14;;;;;;;341.00;83.87;;;;;;;;;;5092693;28;20472;-91
2022/04/01 01:13:40;;;;;;;339.47;81.73;;;;;;;;;;5085720;28;20517;-91
2022/04/01 01:16:07;;;;;;;339.40;84.23;;;;;;;;;;5095967;28;20524;-91
2022/04/01 01:18:35;;;;;;;341.27;84.37;;;;;;;;;;5104141;28;20521;-91
2022/04/01 01:21:02;;;;;;;347.90;86.53;;;;;;;;;;5103987;28;20448;-92
2022/04/01 01:23:31;;;;;;;347.23;86.70;;;;;;;;;;5105328;28;20445;-92
2022/04/01 01:25:58;;;;;;;350.73;85.17;;;;;;;;;;5103681;28;20487;-92
2022/04/01 01:28:25;;;;;;;346.47;85.50;;;;;;;;;;5105375;28;20448;-93
2022/04/01 01:30:51;;;;;;;354.17;87.57;;;;;;;;;;5104889;28;20436;-92
2022/04/01 01:33:20;;;;;;;340.37;85.23;;;;;;;;;;5105059;28;20964;-91
2022/04/01 01:35:46;;;;;;;343.93;86.43;;;;;;;;;;5098433;28;20480;-90
2022/04/01 01:38:13;;;;;;;339.47;83.20;;;;;;;;;;5084961;28;21028;-91
2022/04/01 01:40:39;;;;;;;356.40;85.73;;;;;;;;;;5084933;28;20441;-89
2022/04/01 01:43:07;;;;;;;357.97;86.73;;;;;;;;;;5086413;28;20952;-91
2022/04/01 01:45:34;;;;;;;347.67;85.70;;;;;;;;;;5101248;28;20476;-92
2022/04/01 01:48:00;;;;;;;341.63;87.57;;;;;;;;;;5083848;28;20442;-91
2022/04/01 01:55:55;;;;;;;344.37;82.63;;;;;;;;;;5085032;28;20437;-90
2022/04/01 01:58:23;;;;;;;352.33;81.40;;;;;;;;;;5083532;28;20489;-91
2022/04/01 02:00:49;;;;;;;348.10;84.37;;;;;;;;;;5091757;28;20468;-91
2022/04/01 02:03:17;;;;;;;348.27;85.40;;;;;;;;;;5084205;28;20503;-89
2022/04/01 02:05:43;;;;;;;345.80;87.17;;;;;;;;;;5084211;28;20453;-90
2022/04/01 02:08:10;;;;;;;343.13;85.70;;;;;;;;;;5082811;28;20449;-90
2022/04/01 02:10:36;;;;;;;335.97;86.83;;;;;;;;;;5082504;28;20450;-90
2022/04/01 02:13:03;;;;;;;342.47;82.67;;;;;;;;;;5083764;28;20446;-91
2022/04/01 02:15:32;;;;;;;340.93;84.13;;;;;;;;;;5085176;28;20461;-90
2022/04/01 02:17:59;;;;;;;342.30;80.87;;;;;;;;;;5084332;28;20495;-92
2022/04/01 02:20:25;;;;;;;362.13;88.80;;;;;;;;;;5084587;28;20457;-92
2022/04/01 02:22:53;;;;;;;345.00;83.87;;;;;;;;;;5083835;28;20507;-92
2022/04/01 02:25:20;;;;;;;344.63;84.77;;;;;;;;;;5084006;28;20807;-92
2022/04/01 02:27:46;;;;;;;346.27;84.27;;;;;;;;;;5083890;28;20495;-92
2022/04/01 02:30:13;;;;;;;348.80;90.90;;;;;;;;;;5084000;28;20445;-92
2022/04/01 02:32:41;;;;;;;336.17;86.57;;;;;;;;;;5096640;28;20461;-93
2022/04/01 02:35:08;;;;;;;351.97;84.20;;;;;;;;;;5104051;28;20460;-92
2022/04/01 02:37:35;;;;;;;361.30;90.40;;;;;;;;;;5084409;28;20489;-91
2022/04/01 02:40:01;;;;;;;348.70;87.80;;;;;;;;;;5082254;28;20512;-91
2022/04/01 02:42:28;;;;;;;347.03;83.70;;;;;;;;;;5099579;28;20449;-91
2022/04/01 02:44:56;;;;;;;351.23;82.80;;;;;;;;;;5103255;28;20462;-93
2022/04/01 02:47:22;;;;;;;350.37;85.07;;;;;;;;;;5100937;28;20464;-92
2022/04/01 02:49:50;;;;;;;349.83;87.37;;;;;;;;;;5101144;28;20472;-92
2022/04/01 02:52:16;;;;;;;350.53;84.43;;;;;;;;;;5102422;28;20506;-92
2022/04/01 02:54:43;;;;;;;349.77;87.17;;;;;;;;;;5102578;28;20471;-92
2022/04/01 02:57:10;;;;;;;350.67;90.80;;;;;;;;;;5102634;28;20488;-92
2022/04/01 02:59:37;;;;;;;355.00;88.20;;;;;;;;;;5103328;28;20532;-91
2022/04/01 03:02:04;;;;;;;345.47;86.17;;;;;;;;;;5102761;28;22103;-93
2022/04/01 03:04:31;;;;;;;352.47;84.80;;;;;;;;;;5101518;28;20460;-93
2022/04/01 03:06:58;;;;;;;350.03;84.97;;;;;;;;;;5091861;28;20449;-91
2022/04/01 03:09:25;;;;;;;355.80;84.60;;;;;;;;;;5083120;28;20458;-92
2022/04/01 03:11:51;;;;;;;341.10;85.27;;;;;;;;;;5081373;28;20475;-91
2022/04/01 03:14:18;;;;;;;352.40;85.87;;;;;;;;;;5081267;28;20445;-90
2022/04/01 03:16:44;;;;;;;360.70;86.20;;;;;;;;;;5089908;28;20449;-90
2022/04/01 03:19:11;;;;;;;331.67;84.67;;;;;;;;;;5101898;28;20560;-92
2022/04/01 03:21:38;;;;;;;347.43;85.80;;;;;;;;;;5094160;28;20461;-91
2022/04/01 03:24:06;;;;;;;337.03;80.83;;;;;;;;;;5083279;28;20449;-90
2022/04/01 03:26:33;;;;;;;354.17;87.50;;;;;;;;;;5083054;28;20502;-91
2022/04/01 03:29:00;;;;;;;342.67;82.00;;;;;;;;;;5083215;28;20590;-92
2022/04/01 03:31:28;;;;;;;344.00;85.97;;;;;;;;;;5088679;28;20520;-91
2022/04/01 03:33:55;;;;;;;339.63;85.00;;;;;;;;;;5103167;28;20505;-95
2022/04/01 03:36:22;;;;;;;362.50;89.10;;;;;;;;;;5101647;28;20457;-91
2022/04/01 03:38:49;;;;;;;344.53;86.07;;;;;;;;;;5101778;28;20488;-91
2022/04/01 03:41:17;;;;;;;347.97;86.83;;;;;;;;;;5101239;28;20445;-92
2022/04/01 03:43:43;;;;;;;363.00;84.57;;;;;;;;;;5103288;28;20453;-93
2022/04/01 03:46:11;;;;;;;328.70;82.47;;;;;;;;;;5102782;28;20522;-92
2022/04/01 03:48:40;;;;;;;351.80;89.30;;;;;;;;;;5101770;28;20448;-92
2022/04/01 03:51:06;;;;;;;339.50;86.20;;;;;;;;;;5099902;28;20498;-92
2022/04/01 03:53:34;;;;;;;330.30;81.47;;;;;;;;;;5082349;28;20783;-90
2022/04/01 03:56:01;;;;;;;344.03;83.73;;;;;;;;;;5082528;28;20476;-91
2022/04/01 03:58:30;;;;;;;347.70;85.23;;;;;;;;;;5082703;28;20493;-90
2022/04/01 04:00:58;;;;;;;337.50;82.37;;;;;;;;;;5083057;28;20457;-92
2022/04/01 04:03:25;;;;;;;336.80;85.77;;;;;;;;;;5082708;28;20507;-90
2022/04/01 04:05:52;;;;;;;347.47;86.50;;;;;;;;;;5083012;28;20445;-91
2022/04/01 04:08:20;;;;;;;343.67;89.07;;;;;;;;;;5100509;28;20436;-91
2022/04/01 04:10:47;;;;;;;352.00;85.70;;;;;;;;;;5100449;28;20484;-91
2022/04/01 04:13:15;;;;;;;368.17;89.37;;;;;;;;;;5083224;28;20445;-90
2022/04/01 04:15:47;;;;;;;354.53;87.73;;;;;;;;;;5081844;28;20479;-90
2022/04/01 04:18:16;;;;;;;349.30;84.63;;;;;;;;;;5081704;28;20543;-92
2022/04/01 04:20:49;;;;;;;335.97;82.43;;;;;;;;;;5081002;28;20453;-91
2022/04/01 04:23:17;;;;;;;356.93;86.10;;;;;;;;;;5082759;28;20863;-91
2022/04/01 04:25:48;;;;;;;347.03;84.80;;;;;;;;;;5083092;28;20458;-92
2022/04/01 04:28:17;;;;;;;353.07;88.30;;;;;;;;;;5098140;28;20457;-93
2022/04/01 04:30:49;;;;;;;352.40;87.67;;;;;;;;;;5102088;28;20444;-92
2022/04/01 04:33:17;;;;;;;338.43;85.03;;;;;;;;;;5102541;28;20477;-92
2022/04/01 04:35:45;;;;;;;350.93;85.70;;;;;;;;;;5105950;28;20459;-91
2022/04/01 04:38:13;;;;;;;362.50;89.60;;;;;;;;;;5105859;28;20506;-92
2022/04/01 04:40:42;;;;;;;354.47;86.80;;;;;;;;;;5106069;28;20505;-91
2022/04/01 04:43:09;;;;;;;348.57;82.67;;;;;;;;;;5105815;28;20997;-92
2022/04/01 04:45:36;;;;;;;351.90;81.17;;;;;;;;;;5105643;28;20456;-92
2022/04/01 04:48:04;;;;;;;346.83;86.97;;;;;;;;;;5090062;28;20438;-94
2022/04/01 04:50:31;;;;;;;346.13;86.33;;;;;;;;;;5084047;28;20479;-91
2022/04/01 04:52:58;;;;;;;343.47;84.63;;;;;;;;;;5089353;28;20476;-91
2022/04/01 04:55:25;;;;;;;329.10;85.47;;;;;;;;;;5089875;28;20519;-90
2022/04/01 04:57:53;;;;;;;343.17;90.83;;;;;;;;;;5092861;28;20448;-90
2022/04/01 05:00:21;;;;;;;350.43;88.77;;;;;;;;;;5100763;28;20453;-91
2022/04/01 05:02:55;;;;;;;351.90;89.40;;;;;;;;;;5087962;28;20626;-92
2022/04/01 05:05:26;;;;;;;340.83;84.83;;;;;;;;;;5085111;28;20483;-90
2022/04/01 05:08:02;;;;;;;339.93;86.53;;;;;;;;;;5084055;28;20517;-91
2022/04/01 05:10:30;;;;;;;352.50;90.93;;;;;;;;;;5084615;28;20453;-91
2022/04/01 05:12:58;;;;;;;336.87;86.97;;;;;;;;;;5096849;28;20452;-92
2022/04/01 05:15:26;;;;;;;330.33;85.07;;;;;;;;;;5104980;28;20473;-90
2022/04/01 05:17:54;;;;;;;347.40;87.20;;;;;;;;;;5103102;28;20517;-92
2022/04/01 05:20:23;;;;;;;338.83;88.10;;;;;;;;;;5104173;28;20448;-92
2022/04/01 05:22:57;;;;;;;332.97;83.90;;;;;;;;;;5093900;28;20450;-89
2022/04/01 05:25:25;;;;;;;332.57;87.40;;;;;;;;;;5085176;28;20445;-91
2022/04/01 05:27:53;;;;;;;350.70;86.47;;;;;;;;;;5092770;28;20527;-90
2022/04/01 05:30:21;;;;;;;332.17;89.43;;;;;;;;;;5121679;28;20447;-90
2022/04/01 05:32:58;;;;;;;336.67;86.50;;;;;;;;;;5103711;28;20502;-91
2022/04/01 05:35:26;;;;;;;347.60;90.90;;;;;;;;;;5089773;28;21221;-91
2022/04/01 05:37:54;;;;;;;343.97;89.93;;;;;;;;;;5103154;28;20475;-91
2022/04/01 05:40:22;;;;;;;349.23;84.27;;;;;;;;;;5104301;28;20448;-90
2022/04/01 05:42:49;;;;;;;357.60;88.80;;;;;;;;;;5096242;28;20517;-91
2022/04/01 05:45:16;;;;;;;360.17;90.10;;;;;;;;;;5103921;28;21103;-91
2022/04/01 05:47:45;;;;;;;359.00;87.20;;;;;;;;;;5101412;28;20530;-91
2022/04/01 05:50:12;;;;;;;339.93;86.40;;;;;;;;;;5093881;28;20494;-92
2022/04/01 05:52:39;;;;;;;367.53;91.70;;;;;;;;;;5090866;28;20440;-93
2022/04/01 05:55:11;;;;;;;362.57;94.27;;;;;;;;;;5102434;28;20453;-91
2022/04/01 05:57:38;;;;;;;374.53;96.10;;;;;;;;;;5096761;28;20442;-91
2022/04/01 06:00:05;;;;;;;369.67;94.77;;;;;;;;;;5082818;28;21035;-92
2022/04/01 06:02:37;;;;;;;381.80;96.13;;;;;;;;;;5081735;28;20501;-92
2022/04/01 06:05:15;;;;;;;371.53;94.97;;;;;;;;;;5084704;28;20495;-91
2022/04/01 06:07:45;;;;;;;363.63;97.13;;;;;;;;;;5080507;28;20445;-93
2022/04/01 06:10:19;;;;;;;370.40;94.80;;;;;;;;;;5082127;28;20441;-92
2022/04/01 06:12:50;;;;;;;365.10;101.10;;;;;;;;;;5089578;28;20457;-90
2022/04/01 06:15:19;;;;;;;366.90;99.23;;;;;;;;;;5097119;28;20436;-92
2022/04/01 06:17:52;;;;;;;364.03;97.50;;;;;;;;;;5095499;28;20453;-91
2022/04/01 06:20:20;;;;;;;364.33;93.60;;;;;;;;;;5089175;28;20519;-93
2022/04/01 06:22:49;;;;;;;377.10;105.40;;;;;;;;;;5096795;28;20484;-91
2022/04/01 06:25:20;;;;;;;375.10;100.23;;;;;;;;;;5086333;28;20489;-91
2022/04/01 06:27:47;;;;;;;384.87;98.90;;;;;;;;;;5085181;28;20456;-92
2022/04/01 06:30:15;;;;;;;390.20;98.90;;;;;;;;;;5100093;28;20445;-91
2022/04/01 06:32:49;;;;;;;370.57;98.33;;;;;;;;;;5089858;28;20434;-92
2022/04/01 06:35:19;;;;;;;389.47;103.53;;;;;;;;;;5103414;28;20451;-91
2022/04/01 06:37:50;;;;;;;388.37;103.03;;;;;;;;;;5103151;28;20536;-90
2022/04/01 06:40:22;;;;;;;388.83;103.37;;;;;;;;;;5098826;28;20492;-91
2022/04/01 06:42:51;;;;;;;403.30;105.80;;;;;;;;;;5094557;28;20436;-91
2022/04/01 06:45:17;;;;;;;398.13;106.07;;;;;;;;;;5101893;28;21045;-90
2022/04/01 06:47:45;;;;;;;385.17;103.47;;;;;;;;;;5091271;28;20453;-91
2022/04/01 06:50:12;;;;;;;389.00;105.63;;;;;;;;;;5094634;28;20477;-91
2022/04/01 06:52:39;;;;;;;404.37;110.17;;;;;;;;;;5079104;28;20449;-91
2022/04/01 06:55:06;;;;;;;395.20;103.40;;;;;;;;;;5081850;28;20437;-91
2022/04/01 06:57:34;;;;;;;400.77;110.83;;;;;;;;;;5082021;28;20467;-90
2022/04/01 07:00:00;;;;;;;399.30;111.77;;;;;;;;;;5097884;28;20495;-91
2022/04/01 07:02:27;;;;;;;397.03;114.20;;;;;;;;;;5097403;28;20452;-92
2022/04/01 07:04:53;;;;;;;399.67;117.07;;;;;;;;;;5095320;28;20531;-91
2022/04/01 07:07:20;;;;;;;404.53;114.67;;;;;;;;;;5094552;28;20454;-89
2022/04/01 07:09:46;;;;;;;407.30;108.57;;;;;;;;;;5099396;28;20498;-89
2022/04/01 07:12:13;;;;;;;412.83;114.73;;;;;;;;;;5087857;28;20472;-90
2022/04/01 07:14:40;;;;;;;411.27;114.27;;;;;;;;;;5101056;28;20449;-91
2022/04/01 07:17:08;;;;;;;392.83;112.67;;;;;;;;;;5103025;28;20480;-90
2022/04/01 07:19:35;;;;;;;396.30;111.17;;;;;;;;;;5101005;28;20492;-89
2022/04/01 07:22:01;;;;;;;402.03;111.63;;;;;;;;;;5100723;28;20514;-90
2022/04/01 07:24:30;;;;;;;403.23;114.10;;;;;;;;;;5089934;28;20475;-91
2022/04/01 07:26:56;;;;;;;413.70;116.97;;;;;;;;;;5081209;28;20480;-90
2022/04/01 07:29:23;;;;;;;397.27;109.70;;;;;;;;;;5083043;28;20445;-89
2022/04/01 07:34:36;;;;;;;391.90;110.20;;;;;;;;;;5091570;28;20518;-89
2022/04/01 07:37:04;;;;;;;399.47;107.83;;;;;;;;;;5102981;28;20479;-90
2022/04/01 07:39:31;;;;;;;391.53;104.33;;;;;;;;;;5102629;28;21234;-89
2022/04/01 07:41:58;;;;;;;384.33;107.07;;;;;;;;;;5102694;28;20453;-89
2022/04/01 07:44:24;;;;;;;403.40;115.90;;;;;;;;;;5102424;28;20445;-90
2022/04/01 07:46:53;;;;;;;397.97;116.53;;;;;;;;;;5102033;28;20472;-91
2022/04/01 07:49:19;;;;;;;397.13;109.47;;;;;;;;;;5084750;28;20848;-91
2022/04/01 07:51:46;;;;;;;398.33;111.17;;;;;;;;;;5080633;28;20442;-90
2022/04/01 07:54:13;;;;;;;394.43;112.27;;;;;;;;;;5082502;28;20446;-90
2022/04/01 07:56:40;;;;;;;392.10;110.43;;;;;;;;;;5082349;28;20445;-90
2022/04/01 07:59:07;;;;;;;398.00;114.83;;;;;;;;;;5094793;28;20484;-90
2022/04/01 08:01:34;;;;;;;397.93;113.03;;;;;;;;;;5084683;28;20445;-89
2022/04/01 08:04:02;;;;;;;417.27;115.57;;;;;;;;;;5081497;28;20510;-90
2022/04/01 08:06:28;;;;;;;408.53;114.57;;;;;;;;;;5082260;28;20449;-90
2022/04/01 08:08:55;;;;;;;404.10;118.07;;;;;;;;;;5083074;28;20448;-90
2022/04/01 08:11:22;;;;;;;413.97;122.60;;;;;;;;;;5088949;28;20446;-91
2022/04/01 08:13:49;;;;;;;404.30;116.60;;;;;;;;;;5094159;28;20518;-92
2022/04/01 08:16:15;;;;;;;417.93;123.77;;;;;;;;;;5105372;28;20823;-89
2022/04/01 08:18:42;;;;;;;410.43;116.97;;;;;;;;;;5104413;28;20494;-91
2022/04/01 08:21:10;;;;;;;402.57;115.90;;;;;;;;;;5104941;28;20444;-91
2022/04/01 08:23:37;;;;;;;411.67;120.07;;;;;;;;;;5105282;28;20508;-91
2022/04/01 08:26:04;;;;;;;405.40;118.40;;;;;;;;;;5105471;28;20444;-91
2022/04/01 08:28:31;;;;;;;398.43;118.70;;;;;;;;;;5104053;28;20986;-90
2022/04/01 08:30:58;;;;;;;411.57;120.10;;;;;;;;;;5104438;28;20456;-91
2022/04/01 08:33:24;;;;;;;409.93;123.57;;;;;;;;;;5101593;28;20434;-91
2022/04/01 08:35:51;;;;;;;390.10;119.67;;;;;;;;;;5094994;28;20440;-91
2022/04/01 08:38:19;;;;;;;419.07;118.70;;;;;;;;;;5100508;28;20446;-90
2022/04/01 08:40:46;;;;;;;399.23;115.57;;;;;;;;;;5092271;28;20542;-90
2022/04/01 08:43:12;;;;;;;405.57;114.37;;;;;;;;;;5098186;28;20531;-91
2022/04/01 08:45:39;;;;;;;406.70;121.77;;;;;;;;;;5086143;28;20464;-92
2022/04/01 08:48:06;;;;;;;424.37;126.87;;;;;;;;;;5085903;28;20449;-91
2022/04/01 08:50:33;;;;;;;420.37;124.17;;;;;;;;;;5085321;28;20473;-91
2022/04/01 08:52:59;;;;;;;411.87;127.37;;;;;;;;;;5085809;28;20479;-90
2022/04/01 08:55:27;;;;;;;412.67;125.13;;;;;;;;;;5085616;28;20475;-91
2022/04/01 08:57:54;;;;;;;414.60;126.67;;;;;;;;;;5085546;28;20536;-91
2022/04/01 09:00:38;;;;;;;398.67;124.60;;;;;;;;;;5098789;28;20534;-90
2022/04/01 09:03:06;;;;;;;418.40;135.57;;;;;;;;;;5101842;28;20455;-90
2022/04/01 09:05:32;;;;;;;408.83;132.57;;;;;;;;;;5103905;28;20502;-92
2022/04/01 09:08:00;;;;;;;414.37;128.13;;;;;;;;;;5092004;28;20488;-92
2022/04/01 09:10:28;;;;;;;412.80;135.17;;;;;;;;;;5091386;28;20498;-92
2022/04/01 09:12:54;;;;;;;410.33;131.63;;;;;;;;;;5089907;28;20464;-92
2022/04/01 09:15:21;;;;;;;409.53;132.43;;;;;;;;;;5103064;28;20433;-92
2022/04/01 09:17:50;;;;;;;410.97;126.83;;;;;;;;;;5104807;28;20940;-92
2022/04/01 09:20:18;;;;;;;417.33;128.13;;;;;;;;;;5104357;28;20908;-91
2022/04/01 09:22:45;;;;;;;366.67;113.20;;;;;;;;;;5104775;28;20474;-90
2022/04/01 09:25:13;;;;;;;331.13;105.83;;;;;;;;;;5096464;28;20450;-91
2022/04/01 09:27:41;;;;;;;346.77;102.17;;;;;;;;;;5084870;28;20453;-91
2022/04/01 09:30:09;;;;;;;342.90;107.60;;;;;;;;;;5085064;28;20442;-90
2022/04/01 09:32:39;;;;;;;375.57;106.47;;;;;;;;;;5085272;28;20529;-90
2022/04/01 09:35:07;;;;;;;360.37;106.90;;;;;;;;;;5085279;28;20515;-91
2022/04/01 09:37:37;;;;;;;367.07;108.33;;;;;;;;;;5084447;28;20448;-91
2022/04/01 09:40:04;;;;;;;365.20;104.30;;;;;;;;;;5082854;28;20572;-91
2022/04/01 09:42:31;;;;;;;374.47;107.77;;;;;;;;;;5081878;28;21043;-91
2022/04/01 09:45:00;;;;;;;396.07;111.27;;;;;;;;;;5096401;28;20441;-91
2022/04/01 09:47:27;;;;;;;345.57;102.20;;;;;;;;;;5103715;28;20456;-91
2022/04/01 09:49:54;;;;;;;326.97;103.73;;;;;;;;;;5104459;28;21011;-91
2022/04/01 09:52:22;;;;;;;330.03;102.87;;;;;;;;;;5087708;28;20461;-90
2022/04/01 09:54:50;;;;;;;323.20;99.40;;;;;;;;;;5096005;28;20504;-89
2022/04/01 09:57:18;;;;;;;329.63;102.37;;;;;;;;;;5102902;28;20449;-91
2022/04/01 09:59:45;;;;;;;337.73;100.97;;;;;;;;;;5091972;28;20481;-90
2022/04/01 10:02:12;;;;;;;349.50;100.70;;;;;;;;;;5082722;28;20479;-92
2022/04/01 10:04:39;;;;;;;337.30;102.57;;;;;;;;;;5092226;28;20479;-91
2022/04/01 10:07:06;;;;;;;333.53;103.20;;;;;;;;;;5087121;28;20459;-91
2022/04/01 10:09:33;;;;;;;328.63;101.47;;;;;;;;;;5096143;28;20487;-89
2022/04/01 10:12:01;;;;;;;324.43;100.70;;;;;;;;;;5102334;28;20470;-89
2022/04/01 10:14:28;;;;;;;329.00;103.70;;;;;;;;;;5096247;28;20441;-90
2022/04/01 10:16:56;;;;;;;331.07;100.23;;;;;;;;;;5086172;28;20496;-89
2022/04/01 10:19:25;;;;;;;327.43;100.07;;;;;;;;;;5091074;28;20471;-90
2022/04/01 10:21:52;;;;;;;351.60;103.27;;;;;;;;;;5103726;28;20589;-90
2022/04/01 10:24:35;;;;;;;333.10;101.83;;;;;;;;;;5096949;28;20453;-90
2022/04/01 10:27:10;;;;;;;343.90;102.70;;;;;;;;;;5090132;28;20445;-90
2022/04/01 10:29:37;;;;;;;347.33;103.60;;;;;;;;;;5090585;28;20514;-92
2022/04/01 10:32:23;;;;;;;325.17;106.17;;;;;;;;;;5095030;28;20597;-90
2022/04/01 10:34:53;;;;;;;330.23;102.00;;;;;;;;;;5092537;28;20479;-91
2022/04/01 10:37:21;;;;;;;335.97;104.13;;;;;;;;;;5093320;28;20945;-92
2022/04/01 10:39:48;;;;;;;334.10;99.83;;;;;;;;;;5089933;28;20487;-90
2022/04/01 10:42:16;;;;;;;338.27;103.77;;;;;;;;;;5092685;28;20510;-92
2022/04/01 10:44:46;;;;;;;343.17;100.50;;;;;;;;;;5090069;28;20455;-90
2022/04/01 10:47:13;;;;;;;329.13;103.07;;;;;;;;;;5092437;28;20440;-92
2022/04/01 10:52:24;;;;;;;339.17;101.50;;;;;;;;;;5091691;28;20474;-90
2022/04/01 10:55:06;;;;;;;350.17;99.47;;;;;;;;;;5094988;28;20561;-89
2022/04/01 10:57:35;;;;;;;360.17;106.97;;;;;;;;;;5092002;28;20515;-89
2022/04/01 11:00:02;;;;;;;514.73;199.20;;;;;;;;;;5101502;28;21051;-88
2022/04/01 11:02:29;;;;;;;503.63;179.60;;;;;;;;;;5103534;28;20449;-89
2022/04/01 11:04:55;;;;;;;532.60;201.10;;;;;;;;;;5093528;28;20989;-88
2022/04/01 11:07:36;;;;;;;521.60;184.27;;;;;;;;;;5083089;28;20446;-88
2022/04/01 11:10:04;;;;;;;429.53;117.97;;;;;;;;;;5083689;28;20448;-89
2022/04/01 11:12:34;;;;;;;373.17;107.13;;;;;;;;;;5082358;28;20477;-89
2022/04/01 11:15:21;;;;;;;338.23;103.27;;;;;;;;;;5090548;28;20454;-88
2022/04/01 11:18:00;;;;;;;402.97;121.83;;;;;;;;;;5081490;28;20457;-88
2022/04/01 11:20:27;;;;;;;472.47;142.57;;;;;;;;;;5081513;28;20551;-91
2022/04/01 11:23:02;;;;;;;540.47;204.87;;;;;;;;;;5082205;28;20484;-88
2022/04/01 11:25:54;;;;;;;407.53;121.10;;;;;;;;;;5082611;28;20474;-88
2022/04/01 11:28:21;;;;;;;522.10;162.70;;;;;;;;;;5077652;28;20519;-88
2022/04/01 11:31:08;;;;;;;513.03;178.07;;;;;;;;;;5095461;28;20461;-91
2022/04/01 11:33:34;;;;;;;564.15;230.45;;;;;;;;;;5080919;28;20520;-90
2022/04/01 11:36:01;;;;;;;520.63;200.85;;;;;;;;;;5099137;28;20239;-90
2022/04/01 11:38:30;;;;;;;399.23;122.53;;;;;;;;;;5102652;28;20204;-88
2022/04/01 11:40:59;;;;;;;377.37;120.37;;;;;;;;;;5102061;28;20510;-94
2022/04/01 11:43:27;;;;;;;381.87;114.40;;;;;;;;;;5083239;28;20949;-92
2022/04/01 11:45:57;;;;;;;379.97;113.13;;;;;;;;;;5082983;28;20448;-93
2022/04/01 11:48:26;;;;;;;397.50;117.20;;;;;;;;;;5087478;28;20577;-92
2022/04/01 11:50:54;;;;;;;374.43;112.63;;;;;;;;;;5097160;28;20504;-89
2022/04/01 11:53:23;;;;;;;360.13;111.73;;;;;;;;;;5102148;28;20453;-88
2022/04/01 11:55:51;;;;;;;361.10;108.83;;;;;;;;;;5101900;28;20498;-90
2022/04/01 11:58:17;;;;;;;370.33;106.67;;;;;;;;;;5102752;28;20445;-89
2022/04/01 12:00:44;;;;;;;350.83;102.43;;;;;;;;;;5102506;28;20484;-89
2022/04/01 12:03:11;;;;;;;369.60;111.17;;;;;;;;;;5101856;28;20476;-89
2022/04/01 12:05:39;;;;;;;354.97;106.10;;;;;;;;;;5090106;28;20445;-87
2022/04/01 12:10:56;;;;;;;359.80;111.47;;;;;;;;;;5094874;28;20504;-90
2022/04/01 12:13:23;;;;;;;353.93;111.63;;;;;;;;;;5090142;28;20441;-91
2022/04/01 12:15:50;;;;;;;353.27;108.17;;;;;;;;;;5091355;28;20505;-92
2022/04/01 12:18:18;;;;;;;363.43;109.33;;;;;;;;;;5096466;28;21086;-91
2022/04/01 12:20:45;;;;;;;362.33;110.87;;;;;;;;;;5090656;28;20488;-90
2022/04/01 12:23:12;;;;;;;373.77;113.97;;;;;;;;;;5091343;28;20444;-92
2022/04/01 12:25:40;;;;;;;360.07;112.47;;;;;;;;;;5082226;28;20476;-91
2022/04/01 12:28:09;;;;;;;366.20;109.77;;;;;;;;;;5091282;28;20472;-91
2022/04/01 12:30:38;;;;;;;359.80;111.87;;;;;;;;;;5087202;28;20433;-91
2022/04/01 12:33:06;;;;;;;356.87;112.70;;;;;;;;;;5080538;28;20445;-90
2022/04/01 12:35:33;;;;;;;364.33;110.83;;;;;;;;;;5085449;28;20438;-90
2022/04/01 12:38:03;;;;;;;354.13;109.70;;;;;;;;;;5088042;28;21306;-92
2022/04/01 12:40:34;;;;;;;367.17;111.20;;;;;;;;;;5084707;28;20481;-91
2022/04/01 12:43:00;;;;;;;361.87;110.47;;;;;;;;;;5073129;28;21288;-90
2022/04/01 12:45:28;;;;;;;366.60;107.43;;;;;;;;;;5077402;28;20468;-90
2022/04/01 12:47:56;;;;;;;395.10;116.23;;;;;;;;;;5078417;28;20988;-93
2022/04/01 12:50:33;;;;;;;387.60;119.47;;;;;;;;;;5074976;28;20505;-91
2022/04/01 12:53:08;;;;;;;374.33;115.93;;;;;;;;;;5078592;28;20889;-91
2022/04/01 12:55:34;;;;;;;388.53;122.53;;;;;;;;;;5074516;28;20482;-89
2022/04/01 12:58:01;;;;;;;383.77;114.07;;;;;;;;;;5077420;28;20449;-90
2022/04/01 13:00:29;;;;;;;379.80;116.87;;;;;;;;;;5089137;28;20485;-89
2022/04/01 13:03:01;;;;;;;374.03;115.67;;;;;;;;;;5081953;28;20501;-92
2022/04/01 13:05:27;;;;;;;386.53;115.07;;;;;;;;;;5081082;28;21245;-90
2022/04/01 13:07:54;;;;;;;394.23;120.00;;;;;;;;;;5080941;28;20524;-91
2022/04/01 13:10:23;;;;;;;385.20;111.83;;;;;;;;;;5081038;28;21001;-90
2022/04/01 13:12:51;;;;;;;360.67;102.60;;;;;;;;;;5082046;28;20480;-90
2022/04/01 13:15:19;;;;;;;379.93;111.87;;;;;;;;;;5096490;28;20442;-90
2022/04/01 13:17:49;;;;;;;365.57;113.70;;;;;;;;;;5086032;28;20453;-90
2022/04/01 13:20:17;;;;;;;375.77;110.80;;;;;;;;;;5084956;28;20459;-89
2022/04/01 13:22:44;;;;;;;372.20;108.10;;;;;;;;;;5104756;28;21132;-90
2022/04/01 13:25:11;;;;;;;359.77;111.20;;;;;;;;;;5104353;28;21012;-90
2022/04/01 13:27:38;;;;;;;372.40;105.03;;;;;;;;;;5097951;28;20457;-89
2022/04/01 13:30:05;;;;;;;386.13;117.43;;;;;;;;;;5085799;28;20475;-90
2022/04/01 13:32:32;;;;;;;397.60;119.07;;;;;;;;;;5104802;28;20444;-92
2022/04/01 13:35:00;;;;;;;394.73;113.63;;;;;;;;;;5086199;28;20472;-89
2022/04/01 13:37:26;;;;;;;389.47;119.67;;;;;;;;;;5103770;28;20471;-88
2022/04/01 13:39:53;;;;;;;389.73;120.60;;;;;;;;;;5101985;28;20472;-88
2022/04/01 13:42:20;;;;;;;383.37;114.03;;;;;;;;;;5102398;28;20492;-88
2022/04/01 13:44:47;;;;;;;383.90;113.93;;;;;;;;;;5104566;28;20461;-90
2022/04/01 13:47:14;;;;;;;410.97;129.03;;;;;;;;;;5090947;28;20438;-90
2022/04/01 13:49:41;;;;;;;401.83;124.97;;;;;;;;;;5098025;28;20476;-90
2022/04/01 13:52:10;;;;;;;402.97;122.70;;;;;;;;;;5103199;28;20451;-90
2022/04/01 13:54:36;;;;;;;397.70;123.10;;;;;;;;;;5091284;28;20536;-92
2022/04/01 13:57:03;;;;;;;396.47;123.17;;;;;;;;;;5082939;28;20500;-91
2022/04/01 13:59:30;;;;;;;397.13;117.33;;;;;;;;;;5101037;28;20457;-91
2022/04/01 14:01:57;;;;;;;395.47;119.47;;;;;;;;;;5102257;28;20514;-91
2022/04/01 14:04:23;;;;;;;399.63;122.80;;;;;;;;;;5081442;28;20524;-92
2022/04/01 14:06:50;;;;;;;384.90;116.60;;;;;;;;;;5094491;28;20453;-92
2022/04/01 14:09:19;;;;;;;381.77;111.07;;;;;;;;;;5104044;28;20445;-91
2022/04/01 14:11:45;;;;;;;388.33;113.57;;;;;;;;;;5089414;28;20536;-91
2022/04/01 14:14:12;;;;;;;391.90;114.73;;;;;;;;;;5081983;28;20472;-92
2022/04/01 14:16:39;;;;;;;394.10;116.97;;;;;;;;;;5092708;28;20463;-89
2022/04/01 14:19:07;;;;;;;388.90;114.87;;;;;;;;;;5101798;28;20441;-92